Terminal Aerodrome Forecast
Issued by NWS

Current Version | Previous Version | Text Only | Print | Product List | Glossary On
Versions: 1 2 3 4 5 6 7 8 9 10 11 12 13 14
131
FTUS43 KIWX 250842 AAA
TAFSBN
TAF AMD
KSBN 250842Z 2509/2606 VRB03KT P6SM SCT020 BKN040
      TEMPO 2509/2513 3SM SHRA BR OVC020
     FM251300 12006KT 3SM SHRA BR OVC020
     FM260000 11010G18KT 2SM SHRA BR OVC010=

USA.gov is the U.S. government's official web portal to all federal, state and local government web resources and services.